sensor_id;sensor_type;location;lat;lon;timestamp;temperature;humidity
25616;DHT22;13482;48.234;13.006;2023-08-24T00:02:18;26.00;67.60
25616;DHT22;13482;48.234;13.006;2023-08-24T00:04:45;26.00;67.50
25616;DHT22;13482;48.234;13.006;2023-08-24T00:07:12;26.00;67.60
25616;DHT22;13482;48.234;13.006;2023-08-24T00:09:40;25.90;67.70
25616;DHT22;13482;48.234;13.006;2023-08-24T00:12:07;25.90;67.60
25616;DHT22;13482;48.234;13.006;2023-08-24T00:14:34;25.90;67.60
25616;DHT22;13482;48.234;13.006;2023-08-24T00:17:02;25.80;67.40
25616;DHT22;13482;48.234;13.006;2023-08-24T00:19:29;25.80;67.70
25616;DHT22;13482;48.234;13.006;2023-08-24T00:21:56;25.80;67.60
25616;DHT22;13482;48.234;13.006;2023-08-24T00:24:24;25.70;67.80
25616;DHT22;13482;48.234;13.006;2023-08-24T00:26:51;25.60;67.90
25616;DHT22;13482;48.234;13.006;2023-08-24T00:29:18;25.60;68.00
25616;DHT22;13482;48.234;13.006;2023-08-24T00:31:46;25.60;68.10
25616;DHT22;13482;48.234;13.006;2023-08-24T00:34:13;25.50;68.10
25616;DHT22;13482;48.234;13.006;2023-08-24T00:36:41;25.50;68.30
25616;DHT22;13482;48.234;13.006;2023-08-24T00:39:09;25.50;68.20
25616;DHT22;13482;48.234;13.006;2023-08-24T00:41:37;25.50;68.10
25616;DHT22;13482;48.234;13.006;2023-08-24T00:44:04;25.40;68.30
25616;DHT22;13482;48.234;13.006;2023-08-24T00:46:35;25.40;68.20
25616;DHT22;13482;48.234;13.006;2023-08-24T00:49:02;25.40;68.30
25616;DHT22;13482;48.234;13.006;2023-08-24T00:51:29;25.30;68.50
25616;DHT22;13482;48.234;13.006;2023-08-24T00:53:57;25.30;68.60
25616;DHT22;13482;48.234;13.006;2023-08-24T00:56:24;25.30;68.60
25616;DHT22;13482;48.234;13.006;2023-08-24T00:58:54;25.20;68.50
25616;DHT22;13482;48.234;13.006;2023-08-24T01:01:22;25.20;68.50
25616;DHT22;13482;48.234;13.006;2023-08-24T01:03:52;25.20;68.20
25616;DHT22;13482;48.234;13.006;2023-08-24T01:06:19;25.10;68.30
25616;DHT22;13482;48.234;13.006;2023-08-24T01:08:47;25.10;68.20
25616;DHT22;13482;48.234;13.006;2023-08-24T01:11:21;25.10;68.40
25616;DHT22;13482;48.234;13.006;2023-08-24T01:17:11;25.00;69.00
25616;DHT22;13482;48.234;13.006;2023-08-24T01:19:45;25.00;68.50
25616;DHT22;13482;48.234;13.006;2023-08-24T01:25:22;24.90;68.90
25616;DHT22;13482;48.234;13.006;2023-08-24T01:27:57;24.90;68.60
25616;DHT22;13482;48.234;13.006;2023-08-24T01:30:26;24.80;68.20
25616;DHT22;13482;48.234;13.006;2023-08-24T01:32:53;24.80;68.40
25616;DHT22;13482;48.234;13.006;2023-08-24T01:35:21;24.70;68.50
25616;DHT22;13482;48.234;13.006;2023-08-24T01:37:48;24.70;68.40
25616;DHT22;13482;48.234;13.006;2023-08-24T01:40:35;24.70;68.40
25616;DHT22;13482;48.234;13.006;2023-08-24T01:43:07;24.70;69.20
25616;DHT22;13482;48.234;13.006;2023-08-24T01:45:37;24.60;68.50
25616;DHT22;13482;48.234;13.006;2023-08-24T01:48:06;24.60;68.50
25616;DHT22;13482;48.234;13.006;2023-08-24T01:50:34;24.50;68.40
25616;DHT22;13482;48.234;13.006;2023-08-24T01:53:03;24.50;68.40
25616;DHT22;13482;48.234;13.006;2023-08-24T01:55:30;24.50;68.50
25616;DHT22;13482;48.234;13.006;2023-08-24T01:57:58;24.50;68.70
25616;DHT22;13482;48.234;13.006;2023-08-24T02:00:25;24.40;68.80
25616;DHT22;13482;48.234;13.006;2023-08-24T02:02:54;24.40;68.80
25616;DHT22;13482;48.234;13.006;2023-08-24T02:05:21;24.40;68.90
25616;DHT22;13482;48.234;13.006;2023-08-24T02:07:51;24.30;69.10
25616;DHT22;13482;48.234;13.006;2023-08-24T02:10:18;24.30;69.10
25616;DHT22;13482;48.234;13.006;2023-08-24T02:12:45;24.30;69.10
25616;DHT22;13482;48.234;13.006;2023-08-24T02:15:13;24.30;69.10
25616;DHT22;13482;48.234;13.006;2023-08-24T02:17:40;24.30;69.00
25616;DHT22;13482;48.234;13.006;2023-08-24T02:20:08;24.30;68.90
25616;DHT22;13482;48.234;13.006;2023-08-24T02:22:36;24.20;68.90
25616;DHT22;13482;48.234;13.006;2023-08-24T02:25:05;24.20;68.80
25616;DHT22;13482;48.234;13.006;2023-08-24T02:27:33;24.20;69.10
25616;DHT22;13482;48.234;13.006;2023-08-24T02:30:00;24.20;69.20
25616;DHT22;13482;48.234;13.006;2023-08-24T02:32:28;24.20;69.10
25616;DHT22;13482;48.234;13.006;2023-08-24T02:34:55;24.10;69.20
25616;DHT22;13482;48.234;13.006;2023-08-24T02:37:23;24.10;69.20
25616;DHT22;13482;48.234;13.006;2023-08-24T02:39:50;24.10;69.30
25616;DHT22;13482;48.234;13.006;2023-08-24T02:42:18;24.10;69.30
25616;DHT22;13482;48.234;13.006;2023-08-24T02:44:45;24.00;69.50
25616;DHT22;13482;48.234;13.006;2023-08-24T02:47:12;24.00;69.60
25616;DHT22;13482;48.234;13.006;2023-08-24T02:49:41;23.90;69.40
25616;DHT22;13482;48.234;13.006;2023-08-24T02:52:09;23.90;69.50
25616;DHT22;13482;48.234;13.006;2023-08-24T02:54:36;23.90;69.50
25616;DHT22;13482;48.234;13.006;2023-08-24T02:57:04;23.80;69.60
25616;DHT22;13482;48.234;13.006;2023-08-24T02:59:31;23.80;69.60
25616;DHT22;13482;48.234;13.006;2023-08-24T03:01:59;23.70;69.80
25616;DHT22;13482;48.234;13.006;2023-08-24T03:04:26;23.70;69.90
25616;DHT22;13482;48.234;13.006;2023-08-24T03:06:54;23.70;70.00
25616;DHT22;13482;48.234;13.006;2023-08-24T03:09:21;23.60;70.20
25616;DHT22;13482;48.234;13.006;2023-08-24T03:11:48;23.60;70.10
25616;DHT22;13482;48.234;13.006;2023-08-24T03:14:15;23.50;70.00
25616;DHT22;13482;48.234;13.006;2023-08-24T03:16:43;23.50;69.80
25616;DHT22;13482;48.234;13.006;2023-08-24T03:19:10;23.50;69.90
25616;DHT22;13482;48.234;13.006;2023-08-24T03:21:39;23.40;70.00
25616;DHT22;13482;48.234;13.006;2023-08-24T03:24:06;23.40;70.00
25616;DHT22;13482;48.234;13.006;2023-08-24T03:26:34;23.40;70.10
25616;DHT22;13482;48.234;13.006;2023-08-24T03:29:01;23.40;70.00
25616;DHT22;13482;48.234;13.006;2023-08-24T03:31:28;23.30;70.10
25616;DHT22;13482;48.234;13.006;2023-08-24T03:33:56;23.30;70.10
25616;DHT22;13482;48.234;13.006;2023-08-24T03:36:23;23.30;70.10
25616;DHT22;13482;48.234;13.006;2023-08-24T03:38:50;23.30;70.10
25616;DHT22;13482;48.234;13.006;2023-08-24T03:41:17;23.30;70.00
25616;DHT22;13482;48.234;13.006;2023-08-24T03:43:45;23.30;70.10
25616;DHT22;13482;48.234;13.006;2023-08-24T03:46:12;23.30;70.20
25616;DHT22;13482;48.234;13.006;2023-08-24T03:48:40;23.20;70.00
25616;DHT22;13482;48.234;13.006;2023-08-24T03:51:07;23.20;70.00
25616;DHT22;13482;48.234;13.006;2023-08-24T03:53:35;23.20;69.80
25616;DHT22;13482;48.234;13.006;2023-08-24T03:56:02;23.20;69.80
25616;DHT22;13482;48.234;13.006;2023-08-24T03:58:29;23.10;69.90
25616;DHT22;13482;48.234;13.006;2023-08-24T04:00:57;23.10;69.80
25616;DHT22;13482;48.234;13.006;2023-08-24T04:03:24;23.10;69.90
25616;DHT22;13482;48.234;13.006;2023-08-24T04:05:52;23.00;69.90
25616;DHT22;13482;48.234;13.006;2023-08-24T04:08:19;23.00;70.10
25616;DHT22;13482;48.234;13.006;2023-08-24T04:10:46;23.00;70.20
25616;DHT22;13482;48.234;13.006;2023-08-24T04:13:13;23.00;70.40
25616;DHT22;13482;48.234;13.006;2023-08-24T04:15:41;23.00;70.60
25616;DHT22;13482;48.234;13.006;2023-08-24T04:18:09;22.90;70.50
25616;DHT22;13482;48.234;13.006;2023-08-24T04:20:36;22.90;70.40
25616;DHT22;13482;48.234;13.006;2023-08-24T04:23:04;22.90;70.50
25616;DHT22;13482;48.234;13.006;2023-08-24T04:25:33;22.90;70.50
25616;DHT22;13482;48.234;13.006;2023-08-24T04:28:01;22.90;70.30
25616;DHT22;13482;48.234;13.006;2023-08-24T04:30:28;22.90;70.10
25616;DHT22;13482;48.234;13.006;2023-08-24T04:32:55;22.90;70.10
25616;DHT22;13482;48.234;13.006;2023-08-24T04:35:25;22.90;70.10
25616;DHT22;13482;48.234;13.006;2023-08-24T04:37:53;22.90;70.10
25616;DHT22;13482;48.234;13.006;2023-08-24T04:40:22;22.90;70.10
25616;DHT22;13482;48.234;13.006;2023-08-24T04:42:52;22.90;70.10
25616;DHT22;13482;48.234;13.006;2023-08-24T04:45:21;22.90;70.40
25616;DHT22;13482;48.234;13.006;2023-08-24T04:47:48;22.90;70.30
25616;DHT22;13482;48.234;13.006;2023-08-24T04:50:16;22.90;70.00
25616;DHT22;13482;48.234;13.006;2023-08-24T04:52:43;22.90;70.10
25616;DHT22;13482;48.234;13.006;2023-08-24T04:55:11;22.90;70.10
25616;DHT22;13482;48.234;13.006;2023-08-24T04:57:38;22.90;70.10
25616;DHT22;13482;48.234;13.006;2023-08-24T05:00:06;22.90;70.20
25616;DHT22;13482;48.234;13.006;2023-08-24T05:02:34;22.90;70.20
25616;DHT22;13482;48.234;13.006;2023-08-24T05:05:02;22.90;70.20
25616;DHT22;13482;48.234;13.006;2023-08-24T05:07:30;22.90;70.30
25616;DHT22;13482;48.234;13.006;2023-08-24T05:09:57;23.00;70.40
25616;DHT22;13482;48.234;13.006;2023-08-24T05:12:25;23.00;70.50
25616;DHT22;13482;48.234;13.006;2023-08-24T05:14:53;23.00;70.70
25616;DHT22;13482;48.234;13.006;2023-08-24T05:17:21;23.10;71.00
25616;DHT22;13482;48.234;13.006;2023-08-24T05:19:53;23.10;71.00
25616;DHT22;13482;48.234;13.006;2023-08-24T05:22:21;23.20;71.10
25616;DHT22;13482;48.234;13.006;2023-08-24T05:24:48;23.20;71.20
25616;DHT22;13482;48.234;13.006;2023-08-24T05:27:16;23.30;71.20
25616;DHT22;13482;48.234;13.006;2023-08-24T05:29:43;23.30;71.10
25616;DHT22;13482;48.234;13.006;2023-08-24T05:32:10;23.40;71.10
25616;DHT22;13482;48.234;13.006;2023-08-24T05:34:38;23.50;71.20
25616;DHT22;13482;48.234;13.006;2023-08-24T05:37:05;23.50;71.00
25616;DHT22;13482;48.234;13.006;2023-08-24T05:39:32;23.60;71.30
25616;DHT22;13482;48.234;13.006;2023-08-24T05:42:00;23.60;71.30
25616;DHT22;13482;48.234;13.006;2023-08-24T05:44:27;23.70;71.20
25616;DHT22;13482;48.234;13.006;2023-08-24T05:46:55;23.80;71.30
25616;DHT22;13482;48.234;13.006;2023-08-24T05:49:22;23.80;71.30
25616;DHT22;13482;48.234;13.006;2023-08-24T05:51:51;23.90;71.40
25616;DHT22;13482;48.234;13.006;2023-08-24T05:54:18;24.00;71.50
25616;DHT22;13482;48.234;13.006;2023-08-24T05:56:46;24.00;71.60
25616;DHT22;13482;48.234;13.006;2023-08-24T05:59:15;24.10;71.70
25616;DHT22;13482;48.234;13.006;2023-08-24T06:01:42;24.20;71.80
25616;DHT22;13482;48.234;13.006;2023-08-24T06:04:10;24.30;71.70
25616;DHT22;13482;48.234;13.006;2023-08-24T06:06:37;24.40;71.70
25616;DHT22;13482;48.234;13.006;2023-08-24T06:09:05;24.50;71.70
25616;DHT22;13482;48.234;13.006;2023-08-24T06:11:36;24.60;71.80
25616;DHT22;13482;48.234;13.006;2023-08-24T06:14:03;24.70;71.80
25616;DHT22;13482;48.234;13.006;2023-08-24T06:16:31;24.70;71.90
25616;DHT22;13482;48.234;13.006;2023-08-24T06:18:58;24.80;72.00
25616;DHT22;13482;48.234;13.006;2023-08-24T06:21:25;24.90;72.00
25616;DHT22;13482;48.234;13.006;2023-08-24T06:23:53;25.00;72.10
25616;DHT22;13482;48.234;13.006;2023-08-24T06:26:20;25.20;72.00
25616;DHT22;13482;48.234;13.006;2023-08-24T06:28:48;25.30;72.00
25616;DHT22;13482;48.234;13.006;2023-08-24T06:31:16;25.40;72.20
25616;DHT22;13482;48.234;13.006;2023-08-24T06:33:43;25.50;72.20
25616;DHT22;13482;48.234;13.006;2023-08-24T06:36:10;25.60;72.20
25616;DHT22;13482;48.234;13.006;2023-08-24T06:38:39;25.70;72.30
25616;DHT22;13482;48.234;13.006;2023-08-24T06:41:06;25.90;72.30
25616;DHT22;13482;48.234;13.006;2023-08-24T06:43:39;26.00;72.50
25616;DHT22;13482;48.234;13.006;2023-08-24T06:46:06;26.10;72.40
25616;DHT22;13482;48.234;13.006;2023-08-24T06:48:35;26.20;72.40
25616;DHT22;13482;48.234;13.006;2023-08-24T06:51:04;26.40;72.50
25616;DHT22;13482;48.234;13.006;2023-08-24T06:53:33;26.50;72.50
25616;DHT22;13482;48.234;13.006;2023-08-24T06:56:00;26.70;72.50
25616;DHT22;13482;48.234;13.006;2023-08-24T06:58:27;26.80;72.60
25616;DHT22;13482;48.234;13.006;2023-08-24T07:00:55;27.00;72.50
25616;DHT22;13482;48.234;13.006;2023-08-24T07:03:24;27.10;72.40
25616;DHT22;13482;48.234;13.006;2023-08-24T07:05:52;27.30;72.20
25616;DHT22;13482;48.234;13.006;2023-08-24T07:08:19;27.40;72.10
25616;DHT22;13482;48.234;13.006;2023-08-24T07:10:46;27.60;72.10
25616;DHT22;13482;48.234;13.006;2023-08-24T07:13:14;27.70;71.90
25616;DHT22;13482;48.234;13.006;2023-08-24T07:15:42;27.80;71.90
25616;DHT22;13482;48.234;13.006;2023-08-24T07:18:09;28.00;71.80
25616;DHT22;13482;48.234;13.006;2023-08-24T07:20:37;28.10;71.70
25616;DHT22;13482;48.234;13.006;2023-08-24T07:23:04;28.20;71.60
25616;DHT22;13482;48.234;13.006;2023-08-24T07:25:32;28.40;71.50
25616;DHT22;13482;48.234;13.006;2023-08-24T07:28:00;28.50;71.40
25616;DHT22;13482;48.234;13.006;2023-08-24T07:30:31;28.60;71.20
25616;DHT22;13482;48.234;13.006;2023-08-24T07:33:02;28.80;71.20
25616;DHT22;13482;48.234;13.006;2023-08-24T07:35:32;28.90;71.00
25616;DHT22;13482;48.234;13.006;2023-08-24T07:38:00;29.10;70.90
25616;DHT22;13482;48.234;13.006;2023-08-24T07:40:28;29.20;70.90
25616;DHT22;13482;48.234;13.006;2023-08-24T07:42:55;29.30;70.80
25616;DHT22;13482;48.234;13.006;2023-08-24T07:45:24;29.50;70.90
25616;DHT22;13482;48.234;13.006;2023-08-24T07:47:51;29.60;70.60
25616;DHT22;13482;48.234;13.006;2023-08-24T07:50:20;29.80;70.40
25616;DHT22;13482;48.234;13.006;2023-08-24T07:52:49;29.90;70.30
25616;DHT22;13482;48.234;13.006;2023-08-24T07:55:16;30.10;70.20
25616;DHT22;13482;48.234;13.006;2023-08-24T07:57:43;30.20;69.90
25616;DHT22;13482;48.234;13.006;2023-08-24T08:00:12;30.40;69.80
25616;DHT22;13482;48.234;13.006;2023-08-24T08:02:41;30.50;69.50
25616;DHT22;13482;48.234;13.006;2023-08-24T08:05:08;30.60;69.40
25616;DHT22;13482;48.234;13.006;2023-08-24T08:07:39;30.80;69.20
25616;DHT22;13482;48.234;13.006;2023-08-24T08:10:07;30.90;69.10
25616;DHT22;13482;48.234;13.006;2023-08-24T08:12:35;31.00;68.70
25616;DHT22;13482;48.234;13.006;2023-08-24T08:15:02;31.10;68.60
25616;DHT22;13482;48.234;13.006;2023-08-24T08:17:31;31.20;68.40
25616;DHT22;13482;48.234;13.006;2023-08-24T08:20:00;31.40;68.20
25616;DHT22;13482;48.234;13.006;2023-08-24T08:22:29;31.50;68.20
25616;DHT22;13482;48.234;13.006;2023-08-24T08:24:57;31.60;68.10
25616;DHT22;13482;48.234;13.006;2023-08-24T08:27:24;31.80;68.00
25616;DHT22;13482;48.234;13.006;2023-08-24T08:29:52;31.90;67.80
25616;DHT22;13482;48.234;13.006;2023-08-24T08:32:19;32.00;67.70
25616;DHT22;13482;48.234;13.006;2023-08-24T08:34:46;32.20;67.60
25616;DHT22;13482;48.234;13.006;2023-08-24T08:37:14;32.30;67.40
25616;DHT22;13482;48.234;13.006;2023-08-24T08:39:42;32.50;67.10
25616;DHT22;13482;48.234;13.006;2023-08-24T08:42:14;32.60;66.70
25616;DHT22;13482;48.234;13.006;2023-08-24T08:44:43;32.70;66.10
25616;DHT22;13482;48.234;13.006;2023-08-24T08:47:12;32.80;66.00
25616;DHT22;13482;48.234;13.006;2023-08-24T08:49:42;33.00;66.20
25616;DHT22;13482;48.234;13.006;2023-08-24T08:52:10;33.10;66.00
25616;DHT22;13482;48.234;13.006;2023-08-24T08:54:38;33.20;65.90
25616;DHT22;13482;48.234;13.006;2023-08-24T08:57:06;33.30;65.60
25616;DHT22;13482;48.234;13.006;2023-08-24T08:59:34;33.40;65.60
25616;DHT22;13482;48.234;13.006;2023-08-24T09:02:04;33.60;65.30
25616;DHT22;13482;48.234;13.006;2023-08-24T09:04:33;33.70;65.10
25616;DHT22;13482;48.234;13.006;2023-08-24T09:07:04;33.80;64.90
25616;DHT22;13482;48.234;13.006;2023-08-24T09:09:38;33.90;64.50
25616;DHT22;13482;48.234;13.006;2023-08-24T09:12:06;34.10;63.90
25616;DHT22;13482;48.234;13.006;2023-08-24T09:14:34;34.20;63.50
25616;DHT22;13482;48.234;13.006;2023-08-24T09:17:02;34.30;63.30
25616;DHT22;13482;48.234;13.006;2023-08-24T09:19:32;34.40;63.20
25616;DHT22;13482;48.234;13.006;2023-08-24T09:22:03;34.50;62.90
25616;DHT22;13482;48.234;13.006;2023-08-24T09:24:36;34.60;63.00
25616;DHT22;13482;48.234;13.006;2023-08-24T09:27:17;34.70;62.60
25616;DHT22;13482;48.234;13.006;2023-08-24T09:29:52;34.80;61.00
25616;DHT22;13482;48.234;13.006;2023-08-24T09:32:24;34.90;61.50
25616;DHT22;13482;48.234;13.006;2023-08-24T09:34:55;34.90;61.10
25616;DHT22;13482;48.234;13.006;2023-08-24T09:37:24;35.00;61.20
25616;DHT22;13482;48.234;13.006;2023-08-24T09:40:04;35.10;61.10
25616;DHT22;13482;48.234;13.006;2023-08-24T09:42:43;35.20;60.00
25616;DHT22;13482;48.234;13.006;2023-08-24T09:45:14;35.30;60.40
25616;DHT22;13482;48.234;13.006;2023-08-24T09:47:51;35.30;59.70
25616;DHT22;13482;48.234;13.006;2023-08-24T09:50:22;35.40;58.80
25616;DHT22;13482;48.234;13.006;2023-08-24T09:52:54;35.50;59.60
25616;DHT22;13482;48.234;13.006;2023-08-24T09:55:25;35.60;59.30
25616;DHT22;13482;48.234;13.006;2023-08-24T09:57:55;35.70;59.40
25616;DHT22;13482;48.234;13.006;2023-08-24T10:00:25;35.70;59.00
25616;DHT22;13482;48.234;13.006;2023-08-24T10:02:54;35.80;59.00
25616;DHT22;13482;48.234;13.006;2023-08-24T10:05:26;35.90;58.90
25616;DHT22;13482;48.234;13.006;2023-08-24T10:08:11;36.00;58.30
25616;DHT22;13482;48.234;13.006;2023-08-24T10:10:41;36.00;58.40
25616;DHT22;13482;48.234;13.006;2023-08-24T10:13:18;36.10;58.10
25616;DHT22;13482;48.234;13.006;2023-08-24T10:15:51;36.20;58.10
25616;DHT22;13482;48.234;13.006;2023-08-24T10:18:19;36.30;58.50
25616;DHT22;13482;48.234;13.006;2023-08-24T10:20:47;36.30;58.10
25616;DHT22;13482;48.234;13.006;2023-08-24T10:23:16;36.40;58.10
25616;DHT22;13482;48.234;13.006;2023-08-24T10:25:45;36.50;57.90
25616;DHT22;13482;48.234;13.006;2023-08-24T10:28:14;36.50;57.90
25616;DHT22;13482;48.234;13.006;2023-08-24T10:30:44;36.60;57.90
25616;DHT22;13482;48.234;13.006;2023-08-24T10:33:14;36.60;57.80
25616;DHT22;13482;48.234;13.006;2023-08-24T10:35:43;36.70;57.90
25616;DHT22;13482;48.234;13.006;2023-08-24T10:38:29;36.80;58.00
25616;DHT22;13482;48.234;13.006;2023-08-24T10:41:03;36.80;57.50
25616;DHT22;13482;48.234;13.006;2023-08-24T10:43:37;36.90;57.30
25616;DHT22;13482;48.234;13.006;2023-08-24T10:46:12;37.00;57.60
25616;DHT22;13482;48.234;13.006;2023-08-24T10:54:01;37.20;57.20
25616;DHT22;13482;48.234;13.006;2023-08-24T10:59:15;37.30;57.20
25616;DHT22;13482;48.234;13.006;2023-08-24T11:01:55;37.40;56.70
25616;DHT22;13482;48.234;13.006;2023-08-24T11:04:23;37.40;56.70
25616;DHT22;13482;48.234;13.006;2023-08-24T11:07:00;37.50;57.20
25616;DHT22;13482;48.234;13.006;2023-08-24T11:09:46;37.60;57.10
25616;DHT22;13482;48.234;13.006;2023-08-24T11:12:17;37.60;56.80
25616;DHT22;13482;48.234;13.006;2023-08-24T11:14:52;37.70;57.00
25616;DHT22;13482;48.234;13.006;2023-08-24T11:17:30;37.70;56.40
25616;DHT22;13482;48.234;13.006;2023-08-24T11:20:00;37.70;56.70
25616;DHT22;13482;48.234;13.006;2023-08-24T11:22:32;37.80;56.90
25616;DHT22;13482;48.234;13.006;2023-08-24T11:24:59;37.80;57.00
25616;DHT22;13482;48.234;13.006;2023-08-24T11:27:28;37.90;56.70
25616;DHT22;13482;48.234;13.006;2023-08-24T11:30:00;37.90;56.50
25616;DHT22;13482;48.234;13.006;2023-08-24T11:32:28;38.00;56.00
25616;DHT22;13482;48.234;13.006;2023-08-24T11:34:56;38.00;56.00
25616;DHT22;13482;48.234;13.006;2023-08-24T11:37:23;38.00;56.10
25616;DHT22;13482;48.234;13.006;2023-08-24T11:39:51;38.00;55.80
25616;DHT22;13482;48.234;13.006;2023-08-24T11:42:18;38.10;55.70
25616;DHT22;13482;48.234;13.006;2023-08-24T11:44:46;38.10;55.60
25616;DHT22;13482;48.234;13.006;2023-08-24T11:47:20;38.10;55.30
25616;DHT22;13482;48.234;13.006;2023-08-24T11:49:50;38.20;55.30
25616;DHT22;13482;48.234;13.006;2023-08-24T11:52:17;38.20;55.00
25616;DHT22;13482;48.234;13.006;2023-08-24T11:54:44;38.20;54.80
25616;DHT22;13482;48.234;13.006;2023-08-24T11:57:12;38.20;54.60
25616;DHT22;13482;48.234;13.006;2023-08-24T11:59:40;38.20;54.50
25616;DHT22;13482;48.234;13.006;2023-08-24T12:02:08;38.20;54.60
25616;DHT22;13482;48.234;13.006;2023-08-24T12:04:41;38.20;54.40
25616;DHT22;13482;48.234;13.006;2023-08-24T12:07:14;38.20;54.30
25616;DHT22;13482;48.234;13.006;2023-08-24T12:09:42;38.20;54.20
25616;DHT22;13482;48.234;13.006;2023-08-24T12:12:17;38.30;54.60
25616;DHT22;13482;48.234;13.006;2023-08-24T12:14:47;38.30;53.70
25616;DHT22;13482;48.234;13.006;2023-08-24T12:17:16;38.30;54.10
25616;DHT22;13482;48.234;13.006;2023-08-24T12:19:45;38.30;54.00
25616;DHT22;13482;48.234;13.006;2023-08-24T12:22:22;38.30;54.10
25616;DHT22;13482;48.234;13.006;2023-08-24T12:24:49;38.20;54.20
25616;DHT22;13482;48.234;13.006;2023-08-24T12:27:22;38.20;54.00
25616;DHT22;13482;48.234;13.006;2023-08-24T12:29:50;38.30;53.70
25616;DHT22;13482;48.234;13.006;2023-08-24T12:32:18;38.30;53.90
25616;DHT22;13482;48.234;13.006;2023-08-24T12:34:47;38.30;53.80
25616;DHT22;13482;48.234;13.006;2023-08-24T12:37:15;38.30;53.70
25616;DHT22;13482;48.234;13.006;2023-08-24T12:39:42;38.30;53.70
25616;DHT22;13482;48.234;13.006;2023-08-24T12:42:10;38.40;53.60
25616;DHT22;13482;48.234;13.006;2023-08-24T12:44:38;38.40;53.60
25616;DHT22;13482;48.234;13.006;2023-08-24T12:47:05;38.40;53.30
25616;DHT22;13482;48.234;13.006;2023-08-24T12:49:32;38.40;53.20
25616;DHT22;13482;48.234;13.006;2023-08-24T12:51:59;38.40;53.30
25616;DHT22;13482;48.234;13.006;2023-08-24T12:54:27;38.40;53.20
25616;DHT22;13482;48.234;13.006;2023-08-24T12:56:54;38.50;53.20
25616;DHT22;13482;48.234;13.006;2023-08-24T12:59:21;38.50;53.20
25616;DHT22;13482;48.234;13.006;2023-08-24T13:01:49;38.50;53.20
25616;DHT22;13482;48.234;13.006;2023-08-24T13:04:17;38.50;53.00
25616;DHT22;13482;48.234;13.006;2023-08-24T13:06:44;38.60;53.00
25616;DHT22;13482;48.234;13.006;2023-08-24T13:09:11;38.60;52.90
25616;DHT22;13482;48.234;13.006;2023-08-24T13:11:40;38.60;52.70
25616;DHT22;13482;48.234;13.006;2023-08-24T13:14:08;38.60;52.70
25616;DHT22;13482;48.234;13.006;2023-08-24T13:16:35;38.60;52.80
25616;DHT22;13482;48.234;13.006;2023-08-24T13:19:03;38.60;52.80
25616;DHT22;13482;48.234;13.006;2023-08-24T13:21:31;38.60;52.60
25616;DHT22;13482;48.234;13.006;2023-08-24T13:23:58;38.70;52.70
25616;DHT22;13482;48.234;13.006;2023-08-24T13:26:25;38.70;52.60
25616;DHT22;13482;48.234;13.006;2023-08-24T13:28:53;38.70;52.70
25616;DHT22;13482;48.234;13.006;2023-08-24T13:31:21;38.80;52.90
25616;DHT22;13482;48.234;13.006;2023-08-24T13:33:48;38.80;53.10
25616;DHT22;13482;48.234;13.006;2023-08-24T13:36:15;38.90;53.00
25616;DHT22;13482;48.234;13.006;2023-08-24T13:38:43;39.00;52.90
25616;DHT22;13482;48.234;13.006;2023-08-24T13:41:11;39.00;52.50
25616;DHT22;13482;48.234;13.006;2023-08-24T13:43:38;39.00;52.60
25616;DHT22;13482;48.234;13.006;2023-08-24T13:46:06;39.10;52.50
25616;DHT22;13482;48.234;13.006;2023-08-24T13:48:34;39.10;52.40
25616;DHT22;13482;48.234;13.006;2023-08-24T13:51:02;39.10;52.60
25616;DHT22;13482;48.234;13.006;2023-08-24T13:53:30;39.10;52.50
25616;DHT22;13482;48.234;13.006;2023-08-24T13:55:57;39.10;52.30
25616;DHT22;13482;48.234;13.006;2023-08-24T13:58:24;39.20;52.40
25616;DHT22;13482;48.234;13.006;2023-08-24T14:00:58;39.20;52.30
25616;DHT22;13482;48.234;13.006;2023-08-24T14:03:26;39.20;52.10
25616;DHT22;13482;48.234;13.006;2023-08-24T14:05:57;39.10;52.20
25616;DHT22;13482;48.234;13.006;2023-08-24T14:08:24;39.10;52.00
25616;DHT22;13482;48.234;13.006;2023-08-24T14:10:52;39.10;52.10
25616;DHT22;13482;48.234;13.006;2023-08-24T14:13:20;39.00;52.00
25616;DHT22;13482;48.234;13.006;2023-08-24T14:15:48;39.00;52.20
25616;DHT22;13482;48.234;13.006;2023-08-24T14:18:17;39.00;52.20
25616;DHT22;13482;48.234;13.006;2023-08-24T14:20:47;39.00;52.10
25616;DHT22;13482;48.234;13.006;2023-08-24T14:23:14;39.00;51.90
25616;DHT22;13482;48.234;13.006;2023-08-24T14:25:42;38.90;52.00
25616;DHT22;13482;48.234;13.006;2023-08-24T14:28:09;38.90;52.10
25616;DHT22;13482;48.234;13.006;2023-08-24T14:30:39;38.90;52.20
25616;DHT22;13482;48.234;13.006;2023-08-24T14:33:06;38.90;52.00
25616;DHT22;13482;48.234;13.006;2023-08-24T14:35:34;38.90;52.30
25616;DHT22;13482;48.234;13.006;2023-08-24T14:38:02;39.00;52.30
25616;DHT22;13482;48.234;13.006;2023-08-24T14:40:29;39.00;52.20
25616;DHT22;13482;48.234;13.006;2023-08-24T14:42:56;39.00;52.10
25616;DHT22;13482;48.234;13.006;2023-08-24T14:45:24;39.10;52.20
25616;DHT22;13482;48.234;13.006;2023-08-24T14:47:51;39.10;52.20
25616;DHT22;13482;48.234;13.006;2023-08-24T14:50:19;39.10;52.50
25616;DHT22;13482;48.234;13.006;2023-08-24T14:52:46;39.20;52.40
25616;DHT22;13482;48.234;13.006;2023-08-24T14:55:14;39.30;52.30
25616;DHT22;13482;48.234;13.006;2023-08-24T14:57:41;39.40;52.30
25616;DHT22;13482;48.234;13.006;2023-08-24T15:00:09;39.40;52.20
25616;DHT22;13482;48.234;13.006;2023-08-24T15:02:37;39.50;52.30
25616;DHT22;13482;48.234;13.006;2023-08-24T15:05:05;39.60;52.20
25616;DHT22;13482;48.234;13.006;2023-08-24T15:07:32;39.70;52.10
25616;DHT22;13482;48.234;13.006;2023-08-24T15:10:00;39.80;51.90
25616;DHT22;13482;48.234;13.006;2023-08-24T15:12:28;39.90;51.80
25616;DHT22;13482;48.234;13.006;2023-08-24T15:15:00;40.00;51.80
25616;DHT22;13482;48.234;13.006;2023-08-24T15:17:30;40.10;51.30
25616;DHT22;13482;48.234;13.006;2023-08-24T15:19:58;40.30;51.30
25616;DHT22;13482;48.234;13.006;2023-08-24T15:22:26;40.40;51.30
25616;DHT22;13482;48.234;13.006;2023-08-24T15:24:59;40.50;51.30
25616;DHT22;13482;48.234;13.006;2023-08-24T15:27:28;40.70;51.30
25616;DHT22;13482;48.234;13.006;2023-08-24T15:29:56;40.90;51.20
25616;DHT22;13482;48.234;13.006;2023-08-24T15:32:24;41.10;51.10
25616;DHT22;13482;48.234;13.006;2023-08-24T15:34:51;41.30;50.80
25616;DHT22;13482;48.234;13.006;2023-08-24T15:37:21;41.50;50.50
25616;DHT22;13482;48.234;13.006;2023-08-24T15:39:48;41.70;50.30